Terminal Aerodrome Forecast
Issued by NWS Sterling, VA

Current Version | Previous Version | Graphics & Text | Print | Product List | Glossary On
Versions: 1 2 3 4 5 6 7 8 9 10 11 12 13 14 15 16 17
000
FTUS41 KLWX 241700
TAFMRB
TAF
KMRB 241736Z 2418/2518 35007KT P6SM SCT040
     FM251500 VRB03KT P6SM FEW045 FEW130=

USA.gov is the U.S. government's official web portal to all federal, state and local government web resources and services.